sensor_id;sensor_type;location;lat;lon;timestamp;temperature;humidity
37518;DHT22;23366;52.498;13.446;2022-07-06T00:01:54;19.10;69.80
37518;DHT22;23366;52.498;13.446;2022-07-06T00:04:20;19.10;70.50
37518;DHT22;23366;52.498;13.446;2022-07-06T00:06:46;19.10;70.30
37518;DHT22;23366;52.498;13.446;2022-07-06T00:09:11;19.10;70.00
37518;DHT22;23366;52.498;13.446;2022-07-06T00:11:37;19.10;70.40
37518;DHT22;23366;52.498;13.446;2022-07-06T00:14:04;19.10;70.30
37518;DHT22;23366;52.498;13.446;2022-07-06T00:16:30;19.10;70.50
37518;DHT22;23366;52.498;13.446;2022-07-06T00:18:56;19.10;70.60
37518;DHT22;23366;52.498;13.446;2022-07-06T00:21:22;19.10;70.90
37518;DHT22;23366;52.498;13.446;2022-07-06T00:23:47;19.10;71.20
37518;DHT22;23366;52.498;13.446;2022-07-06T00:26:13;19.00;70.70
37518;DHT22;23366;52.498;13.446;2022-07-06T00:28:39;19.00;71.30
37518;DHT22;23366;52.498;13.446;2022-07-06T00:31:04;19.00;71.00
37518;DHT22;23366;52.498;13.446;2022-07-06T00:33:31;18.90;71.30
37518;DHT22;23366;52.498;13.446;2022-07-06T00:35:57;18.90;71.40
37518;DHT22;23366;52.498;13.446;2022-07-06T00:38:25;19.00;71.80
37518;DHT22;23366;52.498;13.446;2022-07-06T00:40:51;19.00;71.40
37518;DHT22;23366;52.498;13.446;2022-07-06T00:43:17;19.00;71.40
37518;DHT22;23366;52.498;13.446;2022-07-06T00:45:42;19.00;71.30
37518;DHT22;23366;52.498;13.446;2022-07-06T00:48:09;19.00;71.20
37518;DHT22;23366;52.498;13.446;2022-07-06T00:50:35;19.00;71.30
37518;DHT22;23366;52.498;13.446;2022-07-06T00:53:03;18.90;71.50
37518;DHT22;23366;52.498;13.446;2022-07-06T00:55:31;18.90;71.80
37518;DHT22;23366;52.498;13.446;2022-07-06T00:57:57;18.90;71.60
37518;DHT22;23366;52.498;13.446;2022-07-06T01:00:26;18.90;71.80
37518;DHT22;23366;52.498;13.446;2022-07-06T01:02:52;18.90;72.10
37518;DHT22;23366;52.498;13.446;2022-07-06T01:05:18;18.80;72.30
37518;DHT22;23366;52.498;13.446;2022-07-06T01:07:45;18.90;72.30
37518;DHT22;23366;52.498;13.446;2022-07-06T01:10:12;18.90;72.30
37518;DHT22;23366;52.498;13.446;2022-07-06T01:12:40;18.90;72.30
37518;DHT22;23366;52.498;13.446;2022-07-06T01:15:09;18.90;72.30
37518;DHT22;23366;52.498;13.446;2022-07-06T01:17:35;18.90;72.30
37518;DHT22;23366;52.498;13.446;2022-07-06T01:20:12;18.90;72.80
37518;DHT22;23366;52.498;13.446;2022-07-06T01:22:38;18.80;72.70
37518;DHT22;23366;52.498;13.446;2022-07-06T01:25:05;18.80;73.00
37518;DHT22;23366;52.498;13.446;2022-07-06T01:27:32;18.80;73.20
37518;DHT22;23366;52.498;13.446;2022-07-06T01:30:00;18.80;73.10
37518;DHT22;23366;52.498;13.446;2022-07-06T01:32:25;18.70;73.20
37518;DHT22;23366;52.498;13.446;2022-07-06T01:34:51;18.70;73.60
37518;DHT22;23366;52.498;13.446;2022-07-06T01:37:16;18.70;73.60
37518;DHT22;23366;52.498;13.446;2022-07-06T01:39:42;18.70;73.60
37518;DHT22;23366;52.498;13.446;2022-07-06T01:42:08;18.80;73.70
37518;DHT22;23366;52.498;13.446;2022-07-06T01:44:33;18.80;73.40
37518;DHT22;23366;52.498;13.446;2022-07-06T01:46:59;18.90;73.70
37518;DHT22;23366;52.498;13.446;2022-07-06T01:49:24;18.90;73.10
37518;DHT22;23366;52.498;13.446;2022-07-06T01:51:50;18.90;72.70
37518;DHT22;23366;52.498;13.446;2022-07-06T01:54:16;19.00;72.80
37518;DHT22;23366;52.498;13.446;2022-07-06T01:56:41;19.00;72.50
37518;DHT22;23366;52.498;13.446;2022-07-06T01:59:07;19.00;71.90
37518;DHT22;23366;52.498;13.446;2022-07-06T02:01:32;18.90;71.80
37518;DHT22;23366;52.498;13.446;2022-07-06T02:03:58;18.90;71.90
37518;DHT22;23366;52.498;13.446;2022-07-06T02:06:24;18.90;72.10
37518;DHT22;23366;52.498;13.446;2022-07-06T02:08:49;19.00;72.00
37518;DHT22;23366;52.498;13.446;2022-07-06T02:11:17;19.00;71.70
37518;DHT22;23366;52.498;13.446;2022-07-06T02:13:42;19.00;71.30
37518;DHT22;23366;52.498;13.446;2022-07-06T02:16:08;19.00;71.30
37518;DHT22;23366;52.498;13.446;2022-07-06T02:18:34;19.10;71.60
37518;DHT22;23366;52.498;13.446;2022-07-06T02:20:59;19.10;71.60
37518;DHT22;23366;52.498;13.446;2022-07-06T02:23:25;19.20;72.50
37518;DHT22;23366;52.498;13.446;2022-07-06T02:25:51;19.20;73.00
37518;DHT22;23366;52.498;13.446;2022-07-06T02:28:17;19.30;75.00
37518;DHT22;23366;52.498;13.446;2022-07-06T02:30:43;19.30;79.30
37518;DHT22;23366;52.498;13.446;2022-07-06T02:33:08;19.20;80.10
37518;DHT22;23366;52.498;13.446;2022-07-06T02:35:34;19.20;85.00
37518;DHT22;23366;52.498;13.446;2022-07-06T02:37:59;19.20;83.50
37518;DHT22;23366;52.498;13.446;2022-07-06T02:40:25;19.10;85.50
37518;DHT22;23366;52.498;13.446;2022-07-06T02:42:50;19.10;82.70
37518;DHT22;23366;52.498;13.446;2022-07-06T02:45:16;19.00;82.20
37518;DHT22;23366;52.498;13.446;2022-07-06T02:47:42;18.90;84.90
37518;DHT22;23366;52.498;13.446;2022-07-06T02:50:07;18.80;92.00
37518;DHT22;23366;52.498;13.446;2022-07-06T02:52:33;18.60;93.00
37518;DHT22;23366;52.498;13.446;2022-07-06T02:54:58;18.40;98.10
37518;DHT22;23366;52.498;13.446;2022-07-06T02:57:24;18.30;99.00
37518;DHT22;23366;52.498;13.446;2022-07-06T02:59:50;18.20;99.90
37518;DHT22;23366;52.498;13.446;2022-07-06T03:02:16;18.10;99.90
37518;DHT22;23366;52.498;13.446;2022-07-06T03:04:42;18.00;99.90
37518;DHT22;23366;52.498;13.446;2022-07-06T03:07:08;18.00;99.90
37518;DHT22;23366;52.498;13.446;2022-07-06T03:09:34;18.00;99.90
37518;DHT22;23366;52.498;13.446;2022-07-06T03:12:00;18.00;99.90
37518;DHT22;23366;52.498;13.446;2022-07-06T03:14:26;18.00;99.90
37518;DHT22;23366;52.498;13.446;2022-07-06T03:16:52;18.00;99.90
37518;DHT22;23366;52.498;13.446;2022-07-06T03:19:18;18.00;99.90
37518;DHT22;23366;52.498;13.446;2022-07-06T03:21:44;18.00;99.90
37518;DHT22;23366;52.498;13.446;2022-07-06T03:24:10;18.10;99.90
37518;DHT22;23366;52.498;13.446;2022-07-06T03:26:35;18.00;99.90
37518;DHT22;23366;52.498;13.446;2022-07-06T03:29:01;18.10;99.90
37518;DHT22;23366;52.498;13.446;2022-07-06T03:31:27;18.10;99.90
37518;DHT22;23366;52.498;13.446;2022-07-06T03:33:52;18.10;99.90
37518;DHT22;23366;52.498;13.446;2022-07-06T03:36:18;18.10;99.90
37518;DHT22;23366;52.498;13.446;2022-07-06T03:38:43;18.10;99.90
37518;DHT22;23366;52.498;13.446;2022-07-06T03:41:09;18.10;99.90
37518;DHT22;23366;52.498;13.446;2022-07-06T03:43:35;18.10;99.90
37518;DHT22;23366;52.498;13.446;2022-07-06T03:46:02;18.20;99.90
37518;DHT22;23366;52.498;13.446;2022-07-06T03:48:27;18.20;99.90
37518;DHT22;23366;52.498;13.446;2022-07-06T03:50:54;18.20;99.90
37518;DHT22;23366;52.498;13.446;2022-07-06T03:53:19;18.20;99.90
37518;DHT22;23366;52.498;13.446;2022-07-06T03:55:45;18.20;99.90
37518;DHT22;23366;52.498;13.446;2022-07-06T03:58:33;18.20;99.90
37518;DHT22;23366;52.498;13.446;2022-07-06T04:00:59;18.30;99.90
37518;DHT22;23366;52.498;13.446;2022-07-06T04:03:25;18.30;99.90
37518;DHT22;23366;52.498;13.446;2022-07-06T04:05:51;18.30;99.90
37518;DHT22;23366;52.498;13.446;2022-07-06T04:08:16;18.30;99.90
37518;DHT22;23366;52.498;13.446;2022-07-06T04:10:42;18.40;99.90
37518;DHT22;23366;52.498;13.446;2022-07-06T04:13:07;18.50;99.90
37518;DHT22;23366;52.498;13.446;2022-07-06T04:15:33;18.70;99.90
37518;DHT22;23366;52.498;13.446;2022-07-06T04:17:59;18.80;99.90
37518;DHT22;23366;52.498;13.446;2022-07-06T04:20:25;19.00;99.90
37518;DHT22;23366;52.498;13.446;2022-07-06T04:22:51;19.10;99.90
37518;DHT22;23366;52.498;13.446;2022-07-06T04:25:17;19.20;99.90
37518;DHT22;23366;52.498;13.446;2022-07-06T04:27:43;19.40;99.90
37518;DHT22;23366;52.498;13.446;2022-07-06T04:30:09;19.60;99.90
37518;DHT22;23366;52.498;13.446;2022-07-06T04:32:36;19.70;99.90
37518;DHT22;23366;52.498;13.446;2022-07-06T04:35:03;19.90;98.60
37518;DHT22;23366;52.498;13.446;2022-07-06T04:37:28;19.80;97.80
37518;DHT22;23366;52.498;13.446;2022-07-06T04:39:54;19.90;97.10
37518;DHT22;23366;52.498;13.446;2022-07-06T04:42:19;19.80;97.30
37518;DHT22;23366;52.498;13.446;2022-07-06T04:44:45;19.80;97.00
37518;DHT22;23366;52.498;13.446;2022-07-06T04:47:12;19.80;97.40
37518;DHT22;23366;52.498;13.446;2022-07-06T04:49:38;20.10;96.30
37518;DHT22;23366;52.498;13.446;2022-07-06T04:52:04;20.90;94.50
37518;DHT22;23366;52.498;13.446;2022-07-06T04:54:30;22.30;91.60
37518;DHT22;23366;52.498;13.446;2022-07-06T04:56:55;23.90;85.90
37518;DHT22;23366;52.498;13.446;2022-07-06T04:59:21;25.30;76.90
37518;DHT22;23366;52.498;13.446;2022-07-06T05:01:47;26.60;71.80
37518;DHT22;23366;52.498;13.446;2022-07-06T05:04:12;27.50;66.70
37518;DHT22;23366;52.498;13.446;2022-07-06T05:06:39;28.10;64.90
37518;DHT22;23366;52.498;13.446;2022-07-06T05:09:05;28.80;62.90
37518;DHT22;23366;52.498;13.446;2022-07-06T05:11:30;29.40;60.60
37518;DHT22;23366;52.498;13.446;2022-07-06T05:13:56;29.50;60.00
37518;DHT22;23366;52.498;13.446;2022-07-06T05:16:22;29.60;59.50
37518;DHT22;23366;52.498;13.446;2022-07-06T05:18:47;30.30;58.20
37518;DHT22;23366;52.498;13.446;2022-07-06T05:21:13;31.00;57.00
37518;DHT22;23366;52.498;13.446;2022-07-06T05:23:39;31.70;55.20
37518;DHT22;23366;52.498;13.446;2022-07-06T05:26:05;32.60;53.60
37518;DHT22;23366;52.498;13.446;2022-07-06T05:28:30;33.30;52.10
37518;DHT22;23366;52.498;13.446;2022-07-06T05:30:56;34.00;50.50
37518;DHT22;23366;52.498;13.446;2022-07-06T05:33:22;34.70;49.20
37518;DHT22;23366;52.498;13.446;2022-07-06T05:35:47;35.40;48.30
37518;DHT22;23366;52.498;13.446;2022-07-06T05:38:13;35.80;47.40
37518;DHT22;23366;52.498;13.446;2022-07-06T05:40:39;36.20;46.20
37518;DHT22;23366;52.498;13.446;2022-07-06T05:43:04;36.60;46.00
37518;DHT22;23366;52.498;13.446;2022-07-06T05:45:30;37.00;45.40
37518;DHT22;23366;52.498;13.446;2022-07-06T05:47:55;37.50;44.70
37518;DHT22;23366;52.498;13.446;2022-07-06T05:50:40;37.40;44.30
37518;DHT22;23366;52.498;13.446;2022-07-06T05:53:06;37.40;44.10
37518;DHT22;23366;52.498;13.446;2022-07-06T05:55:32;37.50;43.60
37518;DHT22;23366;52.498;13.446;2022-07-06T05:57:57;37.50;43.90
37518;DHT22;23366;52.498;13.446;2022-07-06T06:00:24;37.40;43.80
37518;DHT22;23366;52.498;13.446;2022-07-06T06:02:54;37.80;43.40
37518;DHT22;23366;52.498;13.446;2022-07-06T06:05:20;38.20;42.90
37518;DHT22;23366;52.498;13.446;2022-07-06T06:07:46;38.20;42.70
37518;DHT22;23366;52.498;13.446;2022-07-06T06:10:14;38.60;42.30
37518;DHT22;23366;52.498;13.446;2022-07-06T06:12:41;38.70;42.30
37518;DHT22;23366;52.498;13.446;2022-07-06T06:15:07;38.60;42.10
37518;DHT22;23366;52.498;13.446;2022-07-06T06:17:34;38.70;42.00
37518;DHT22;23366;52.498;13.446;2022-07-06T06:20:00;38.60;42.00
37518;DHT22;23366;52.498;13.446;2022-07-06T06:22:26;38.10;42.00
37518;DHT22;23366;52.498;13.446;2022-07-06T06:24:52;38.10;42.00
37518;DHT22;23366;52.498;13.446;2022-07-06T06:27:18;37.80;42.30
37518;DHT22;23366;52.498;13.446;2022-07-06T06:29:43;37.60;42.20
37518;DHT22;23366;52.498;13.446;2022-07-06T06:32:10;37.60;42.30
37518;DHT22;23366;52.498;13.446;2022-07-06T06:34:36;37.90;42.30
37518;DHT22;23366;52.498;13.446;2022-07-06T06:37:02;38.00;42.10
37518;DHT22;23366;52.498;13.446;2022-07-06T06:39:28;38.10;41.70
37518;DHT22;23366;52.498;13.446;2022-07-06T06:41:53;38.40;41.30
37518;DHT22;23366;52.498;13.446;2022-07-06T06:44:19;38.90;41.00
37518;DHT22;23366;52.498;13.446;2022-07-06T06:46:51;39.20;41.00
37518;DHT22;23366;52.498;13.446;2022-07-06T06:49:19;39.40;40.20
37518;DHT22;23366;52.498;13.446;2022-07-06T06:51:45;38.80;40.60
37518;DHT22;23366;52.498;13.446;2022-07-06T06:54:10;38.80;40.90
37518;DHT22;23366;52.498;13.446;2022-07-06T06:56:36;39.00;41.10
37518;DHT22;23366;52.498;13.446;2022-07-06T06:59:02;38.90;40.90
37518;DHT22;23366;52.498;13.446;2022-07-06T07:01:29;39.50;40.90
37518;DHT22;23366;52.498;13.446;2022-07-06T07:03:55;39.90;40.70
37518;DHT22;23366;52.498;13.446;2022-07-06T07:06:21;39.70;40.10
37518;DHT22;23366;52.498;13.446;2022-07-06T07:08:47;39.00;40.60
37518;DHT22;23366;52.498;13.446;2022-07-06T07:11:15;38.10;40.60
37518;DHT22;23366;52.498;13.446;2022-07-06T07:13:43;36.40;42.00
37518;DHT22;23366;52.498;13.446;2022-07-06T07:16:09;35.90;42.80
37518;DHT22;23366;52.498;13.446;2022-07-06T07:18:34;36.50;41.90
37518;DHT22;23366;52.498;13.446;2022-07-06T07:21:00;37.60;41.40
37518;DHT22;23366;52.498;13.446;2022-07-06T07:23:26;37.50;41.20
37518;DHT22;23366;52.498;13.446;2022-07-06T07:25:52;37.30;41.90
37518;DHT22;23366;52.498;13.446;2022-07-06T07:28:17;37.00;41.60
37518;DHT22;23366;52.498;13.446;2022-07-06T07:30:43;37.20;41.80
37518;DHT22;23366;52.498;13.446;2022-07-06T07:33:08;38.10;41.10
37518;DHT22;23366;52.498;13.446;2022-07-06T07:35:34;37.60;40.70
37518;DHT22;23366;52.498;13.446;2022-07-06T07:38:00;36.20;41.70
37518;DHT22;23366;52.498;13.446;2022-07-06T07:40:25;34.70;43.00
37518;DHT22;23366;52.498;13.446;2022-07-06T07:42:52;33.80;44.00
37518;DHT22;23366;52.498;13.446;2022-07-06T07:45:18;33.10;44.90
37518;DHT22;23366;52.498;13.446;2022-07-06T07:47:44;33.50;44.60
37518;DHT22;23366;52.498;13.446;2022-07-06T07:50:10;35.50;42.80
37518;DHT22;23366;52.498;13.446;2022-07-06T07:52:36;37.90;40.30
37518;DHT22;23366;52.498;13.446;2022-07-06T07:55:02;40.80;38.80
37518;DHT22;23366;52.498;13.446;2022-07-06T07:57:28;42.70;36.80
37518;DHT22;23366;52.498;13.446;2022-07-06T07:59:53;43.50;36.00
37518;DHT22;23366;52.498;13.446;2022-07-06T08:02:19;43.40;35.70
37518;DHT22;23366;52.498;13.446;2022-07-06T08:04:45;42.60;35.80
37518;DHT22;23366;52.498;13.446;2022-07-06T08:07:10;41.70;36.00
37518;DHT22;23366;52.498;13.446;2022-07-06T08:09:36;41.60;36.80
37518;DHT22;23366;52.498;13.446;2022-07-06T08:12:01;42.90;36.00
37518;DHT22;23366;52.498;13.446;2022-07-06T08:14:27;43.80;35.30
37518;DHT22;23366;52.498;13.446;2022-07-06T08:16:53;43.10;35.00
37518;DHT22;23366;52.498;13.446;2022-07-06T08:19:18;42.00;36.00
37518;DHT22;23366;52.498;13.446;2022-07-06T08:21:44;41.30;36.10
37518;DHT22;23366;52.498;13.446;2022-07-06T08:24:10;40.20;36.60
37518;DHT22;23366;52.498;13.446;2022-07-06T08:26:36;38.70;37.70
37518;DHT22;23366;52.498;13.446;2022-07-06T08:29:02;39.10;38.00
37518;DHT22;23366;52.498;13.446;2022-07-06T08:31:28;39.10;37.80
37518;DHT22;23366;52.498;13.446;2022-07-06T08:33:54;38.00;38.30
37518;DHT22;23366;52.498;13.446;2022-07-06T08:36:20;36.10;39.60
37518;DHT22;23366;52.498;13.446;2022-07-06T08:38:47;34.20;41.00
37518;DHT22;23366;52.498;13.446;2022-07-06T08:41:14;32.40;42.70
37518;DHT22;23366;52.498;13.446;2022-07-06T08:43:40;31.00;44.00
37518;DHT22;23366;52.498;13.446;2022-07-06T08:46:07;30.40;45.70
37518;DHT22;23366;52.498;13.446;2022-07-06T08:48:37;30.30;45.80
37518;DHT22;23366;52.498;13.446;2022-07-06T08:51:05;30.20;45.50
37518;DHT22;23366;52.498;13.446;2022-07-06T08:53:31;29.70;45.90
37518;DHT22;23366;52.498;13.446;2022-07-06T08:55:57;29.40;45.80
37518;DHT22;23366;52.498;13.446;2022-07-06T08:58:24;29.20;46.20
37518;DHT22;23366;52.498;13.446;2022-07-06T09:00:50;29.40;46.50
37518;DHT22;23366;52.498;13.446;2022-07-06T09:03:16;28.90;45.90
37518;DHT22;23366;52.498;13.446;2022-07-06T09:05:45;28.20;46.00
37518;DHT22;23366;52.498;13.446;2022-07-06T09:08:11;27.50;47.40
37518;DHT22;23366;52.498;13.446;2022-07-06T09:10:37;27.10;47.70
37518;DHT22;23366;52.498;13.446;2022-07-06T09:13:04;26.80;48.80
37518;DHT22;23366;52.498;13.446;2022-07-06T09:15:31;26.70;48.50
37518;DHT22;23366;52.498;13.446;2022-07-06T09:17:57;26.50;48.50
37518;DHT22;23366;52.498;13.446;2022-07-06T09:20:24;26.40;48.60
37518;DHT22;23366;52.498;13.446;2022-07-06T09:22:49;26.10;49.40
37518;DHT22;23366;52.498;13.446;2022-07-06T09:25:16;26.00;49.00
37518;DHT22;23366;52.498;13.446;2022-07-06T09:27:46;26.00;49.70
37518;DHT22;23366;52.498;13.446;2022-07-06T09:30:20;26.40;49.30
37518;DHT22;23366;52.498;13.446;2022-07-06T09:32:49;26.90;48.50
37518;DHT22;23366;52.498;13.446;2022-07-06T09:35:27;27.80;47.00
37518;DHT22;23366;52.498;13.446;2022-07-06T09:38:03;28.60;45.20
37518;DHT22;23366;52.498;13.446;2022-07-06T09:40:37;28.80;44.00
37518;DHT22;23366;52.498;13.446;2022-07-06T09:43:13;28.60;43.00
37518;DHT22;23366;52.498;13.446;2022-07-06T09:45:40;28.10;43.20
37518;DHT22;23366;52.498;13.446;2022-07-06T09:48:09;27.50;44.20
37518;DHT22;23366;52.498;13.446;2022-07-06T09:50:46;27.10;45.40
37518;DHT22;23366;52.498;13.446;2022-07-06T09:53:12;26.70;46.00
37518;DHT22;23366;52.498;13.446;2022-07-06T09:55:42;26.30;47.10
37518;DHT22;23366;52.498;13.446;2022-07-06T09:58:08;26.10;47.50
37518;DHT22;23366;52.498;13.446;2022-07-06T10:00:34;25.80;47.80
37518;DHT22;23366;52.498;13.446;2022-07-06T10:03:00;25.60;48.00
37518;DHT22;23366;52.498;13.446;2022-07-06T10:05:27;25.60;48.70
37518;DHT22;23366;52.498;13.446;2022-07-06T10:07:59;25.70;48.80
37518;DHT22;23366;52.498;13.446;2022-07-06T10:10:27;25.80;48.70
37518;DHT22;23366;52.498;13.446;2022-07-06T10:12:57;26.00;49.00
37518;DHT22;23366;52.498;13.446;2022-07-06T10:15:32;26.10;48.80
37518;DHT22;23366;52.498;13.446;2022-07-06T10:18:03;26.20;48.60
37518;DHT22;23366;52.498;13.446;2022-07-06T10:20:32;26.20;48.90
37518;DHT22;23366;52.498;13.446;2022-07-06T10:23:02;26.30;49.20
37518;DHT22;23366;52.498;13.446;2022-07-06T10:25:28;26.20;49.40
37518;DHT22;23366;52.498;13.446;2022-07-06T10:27:55;26.30;48.80
37518;DHT22;23366;52.498;13.446;2022-07-06T10:30:22;26.30;49.60
37518;DHT22;23366;52.498;13.446;2022-07-06T10:32:49;26.30;49.90
37518;DHT22;23366;52.498;13.446;2022-07-06T10:35:17;26.40;49.90
37518;DHT22;23366;52.498;13.446;2022-07-06T10:37:44;26.50;50.10
37518;DHT22;23366;52.498;13.446;2022-07-06T10:40:13;26.70;50.00
37518;DHT22;23366;52.498;13.446;2022-07-06T10:42:59;26.80;49.80
37518;DHT22;23366;52.498;13.446;2022-07-06T10:50:48;26.80;49.50
37518;DHT22;23366;52.498;13.446;2022-07-06T10:53:25;26.70;49.00
37518;DHT22;23366;52.498;13.446;2022-07-06T10:55:53;26.90;49.10
37518;DHT22;23366;52.498;13.446;2022-07-06T10:58:39;26.90;49.00
37518;DHT22;23366;52.498;13.446;2022-07-06T11:01:06;27.30;48.90
37518;DHT22;23366;52.498;13.446;2022-07-06T11:03:47;27.50;48.50
37518;DHT22;23366;52.498;13.446;2022-07-06T11:06:25;27.70;48.20
37518;DHT22;23366;52.498;13.446;2022-07-06T11:08:55;27.60;47.20
37518;DHT22;23366;52.498;13.446;2022-07-06T11:13:56;27.60;48.00
37518;DHT22;23366;52.498;13.446;2022-07-06T11:16:24;27.70;48.50
37518;DHT22;23366;52.498;13.446;2022-07-06T11:19:27;27.60;48.10
37518;DHT22;23366;52.498;13.446;2022-07-06T11:21:57;27.60;47.70
37518;DHT22;23366;52.498;13.446;2022-07-06T11:24:31;27.60;47.70
37518;DHT22;23366;52.498;13.446;2022-07-06T11:26:58;27.20;47.70
37518;DHT22;23366;52.498;13.446;2022-07-06T11:29:25;26.70;48.50
37518;DHT22;23366;52.498;13.446;2022-07-06T11:31:58;26.50;49.50
37518;DHT22;23366;52.498;13.446;2022-07-06T11:34:30;26.10;49.90
37518;DHT22;23366;52.498;13.446;2022-07-06T11:37:01;25.60;50.90
37518;DHT22;23366;52.498;13.446;2022-07-06T11:39:31;25.40;51.50
37518;DHT22;23366;52.498;13.446;2022-07-06T11:41:58;25.10;51.30
37518;DHT22;23366;52.498;13.446;2022-07-06T11:44:24;25.10;51.70
37518;DHT22;23366;52.498;13.446;2022-07-06T11:46:50;25.10;51.50
37518;DHT22;23366;52.498;13.446;2022-07-06T11:49:17;25.10;50.40
37518;DHT22;23366;52.498;13.446;2022-07-06T11:51:44;25.20;49.60
37518;DHT22;23366;52.498;13.446;2022-07-06T11:54:12;25.50;49.40
37518;DHT22;23366;52.498;13.446;2022-07-06T11:56:46;25.60;49.00
37518;DHT22;23366;52.498;13.446;2022-07-06T11:59:11;25.80;49.60
37518;DHT22;23366;52.498;13.446;2022-07-06T12:01:37;26.00;49.80
37518;DHT22;23366;52.498;13.446;2022-07-06T12:04:07;26.20;49.40
37518;DHT22;23366;52.498;13.446;2022-07-06T12:06:33;26.50;48.70
37518;DHT22;23366;52.498;13.446;2022-07-06T12:08:59;26.80;48.50
37518;DHT22;23366;52.498;13.446;2022-07-06T12:11:31;27.00;48.20
37518;DHT22;23366;52.498;13.446;2022-07-06T12:13:59;26.80;48.70
37518;DHT22;23366;52.498;13.446;2022-07-06T12:16:34;26.50;49.10
37518;DHT22;23366;52.498;13.446;2022-07-06T12:19:01;26.50;49.30
37518;DHT22;23366;52.498;13.446;2022-07-06T12:21:26;26.50;49.30
37518;DHT22;23366;52.498;13.446;2022-07-06T12:23:53;26.40;50.00
37518;DHT22;23366;52.498;13.446;2022-07-06T12:26:26;26.20;50.10
37518;DHT22;23366;52.498;13.446;2022-07-06T12:29:04;26.30;49.90
37518;DHT22;23366;52.498;13.446;2022-07-06T12:34:17;26.10;50.10
37518;DHT22;23366;52.498;13.446;2022-07-06T12:36:51;25.90;50.30
37518;DHT22;23366;52.498;13.446;2022-07-06T12:39:20;25.90;51.20
37518;DHT22;23366;52.498;13.446;2022-07-06T12:44:24;26.00;51.20
37518;DHT22;23366;52.498;13.446;2022-07-06T12:47:03;25.90;50.80
37518;DHT22;23366;52.498;13.446;2022-07-06T12:49:29;26.10;50.90
37518;DHT22;23366;52.498;13.446;2022-07-06T12:51:59;26.30;50.70
37518;DHT22;23366;52.498;13.446;2022-07-06T12:54:31;26.40;50.30
37518;DHT22;23366;52.498;13.446;2022-07-06T12:57:25;26.40;49.10
37518;DHT22;23366;52.498;13.446;2022-07-06T12:59:55;26.40;49.80
37518;DHT22;23366;52.498;13.446;2022-07-06T13:02:22;26.70;50.00
37518;DHT22;23366;52.498;13.446;2022-07-06T13:05:09;26.70;49.70
37518;DHT22;23366;52.498;13.446;2022-07-06T13:07:36;26.60;49.80
37518;DHT22;23366;52.498;13.446;2022-07-06T13:10:07;26.70;50.00
37518;DHT22;23366;52.498;13.446;2022-07-06T13:12:34;26.60;49.90
37518;DHT22;23366;52.498;13.446;2022-07-06T13:15:01;26.60;50.10
37518;DHT22;23366;52.498;13.446;2022-07-06T13:17:27;26.60;50.20
37518;DHT22;23366;52.498;13.446;2022-07-06T13:19:52;26.80;50.30
37518;DHT22;23366;52.498;13.446;2022-07-06T13:22:18;26.80;50.00
37518;DHT22;23366;52.498;13.446;2022-07-06T13:24:44;26.80;50.00
37518;DHT22;23366;52.498;13.446;2022-07-06T13:27:10;26.50;49.00
37518;DHT22;23366;52.498;13.446;2022-07-06T13:29:36;26.60;49.10
37518;DHT22;23366;52.498;13.446;2022-07-06T13:32:03;26.50;50.10
37518;DHT22;23366;52.498;13.446;2022-07-06T13:34:28;26.50;50.10
37518;DHT22;23366;52.498;13.446;2022-07-06T13:36:54;26.50;49.60
37518;DHT22;23366;52.498;13.446;2022-07-06T13:39:20;26.50;49.70
37518;DHT22;23366;52.498;13.446;2022-07-06T13:41:46;26.30;49.70
37518;DHT22;23366;52.498;13.446;2022-07-06T13:44:11;26.20;50.40
37518;DHT22;23366;52.498;13.446;2022-07-06T13:46:38;26.10;50.40
37518;DHT22;23366;52.498;13.446;2022-07-06T13:49:05;26.00;50.40
37518;DHT22;23366;52.498;13.446;2022-07-06T13:51:31;26.00;50.40
37518;DHT22;23366;52.498;13.446;2022-07-06T13:53:59;26.00;50.10
37518;DHT22;23366;52.498;13.446;2022-07-06T13:56:26;26.00;49.40
37518;DHT22;23366;52.498;13.446;2022-07-06T13:58:52;26.10;49.80
37518;DHT22;23366;52.498;13.446;2022-07-06T14:01:17;26.10;49.40
37518;DHT22;23366;52.498;13.446;2022-07-06T14:03:43;26.10;49.60
37518;DHT22;23366;52.498;13.446;2022-07-06T14:06:09;26.00;49.60
37518;DHT22;23366;52.498;13.446;2022-07-06T14:08:36;25.90;49.80
37518;DHT22;23366;52.498;13.446;2022-07-06T14:11:03;26.00;49.60
37518;DHT22;23366;52.498;13.446;2022-07-06T14:13:29;26.00;50.60
37518;DHT22;23366;52.498;13.446;2022-07-06T14:15:55;25.90;49.80
37518;DHT22;23366;52.498;13.446;2022-07-06T14:18:21;25.90;49.40
37518;DHT22;23366;52.498;13.446;2022-07-06T14:20:47;25.80;48.80
37518;DHT22;23366;52.498;13.446;2022-07-06T14:23:14;25.80;48.70
37518;DHT22;23366;52.498;13.446;2022-07-06T14:25:40;25.70;48.30
37518;DHT22;23366;52.498;13.446;2022-07-06T14:28:06;25.60;49.10
37518;DHT22;23366;52.498;13.446;2022-07-06T14:30:56;25.60;48.90
37518;DHT22;23366;52.498;13.446;2022-07-06T14:33:31;25.50;49.40
37518;DHT22;23366;52.498;13.446;2022-07-06T14:35:56;25.20;50.30
37518;DHT22;23366;52.498;13.446;2022-07-06T14:38:22;25.00;50.00
37518;DHT22;23366;52.498;13.446;2022-07-06T14:40:48;25.10;50.60
37518;DHT22;23366;52.498;13.446;2022-07-06T14:43:15;25.10;50.90
37518;DHT22;23366;52.498;13.446;2022-07-06T14:45:43;25.20;51.20
37518;DHT22;23366;52.498;13.446;2022-07-06T14:48:08;25.20;51.70
37518;DHT22;23366;52.498;13.446;2022-07-06T14:50:34;25.30;50.90
37518;DHT22;23366;52.498;13.446;2022-07-06T14:53:00;25.30;51.40
37518;DHT22;23366;52.498;13.446;2022-07-06T14:55:26;25.20;50.90
37518;DHT22;23366;52.498;13.446;2022-07-06T14:57:52;25.00;51.60
37518;DHT22;23366;52.498;13.446;2022-07-06T15:00:18;25.00;52.20
37518;DHT22;23366;52.498;13.446;2022-07-06T15:02:43;25.10;52.10
37518;DHT22;23366;52.498;13.446;2022-07-06T15:05:10;25.00;51.90
37518;DHT22;23366;52.498;13.446;2022-07-06T15:07:36;24.90;52.50
37518;DHT22;23366;52.498;13.446;2022-07-06T15:10:03;24.80;52.30
37518;DHT22;23366;52.498;13.446;2022-07-06T15:12:29;24.60;53.00
37518;DHT22;23366;52.498;13.446;2022-07-06T15:14:55;24.60;53.00
37518;DHT22;23366;52.498;13.446;2022-07-06T15:17:20;24.40;52.80
37518;DHT22;23366;52.498;13.446;2022-07-06T15:19:46;24.30;53.70
37518;DHT22;23366;52.498;13.446;2022-07-06T15:22:12;24.00;53.90
37518;DHT22;23366;52.498;13.446;2022-07-06T15:24:38;23.90;54.40
37518;DHT22;23366;52.498;13.446;2022-07-06T15:27:04;23.80;54.60
37518;DHT22;23366;52.498;13.446;2022-07-06T15:29:31;23.70;55.00